createdAt,value
2022-09-30T00:03:49.561Z,99.40
2022-09-30T00:09:51.521Z,99.49
2022-09-30T00:15:53.546Z,99.23
2022-09-30T00:21:55.526Z,100.00
2022-09-30T00:27:57.455Z,99.40
2022-09-30T00:34:09.438Z,99.09
2022-09-30T00:40:11.990Z,99.82
2022-09-30T00:46:31.908Z,100.00
2022-09-30T00:52:34.758Z,99.97
2022-09-30T00:59:13.798Z,99.94
2022-09-30T01:05:16.542Z,100.00
2022-09-30T01:11:18.837Z,100.00
2022-09-30T01:17:32.761Z,100.00
2022-09-30T01:24:06.224Z,99.73
2022-09-30T01:30:37.792Z,99.68
2022-09-30T01:37:02.723Z,99.67
2022-09-30T01:43:35.573Z,99.64
2022-09-30T01:50:02.687Z,99.21
2022-09-30T01:56:33.946Z,100.00
2022-09-30T02:02:51.967Z,98.44
2022-09-30T02:09:20.456Z,98.81
2022-09-30T02:15:29.053Z,99.43
2022-09-30T02:21:38.751Z,100.00
2022-09-30T02:27:48.442Z,98.92
2022-09-30T02:34:19.389Z,97.97
2022-09-30T02:40:31.262Z,97.27
2022-09-30T02:47:10.088Z,98.17
2022-09-30T02:53:46.485Z,97.55
2022-09-30T02:59:52.713Z,98.18
2022-09-30T03:06:01.092Z,97.87
2022-09-30T03:12:26.101Z,98.66
2022-09-30T03:18:52.423Z,98.67
2022-09-30T03:25:23.511Z,98.31
2022-09-30T03:32:20.968Z,99.09
2022-09-30T03:39:00.077Z,100.00
2022-09-30T03:45:23.775Z,99.76
2022-09-30T03:51:32.054Z,99.92
2022-09-30T03:57:33.965Z,100.00
2022-09-30T04:03:35.982Z,100.00
2022-09-30T04:09:43.195Z,100.00
2022-09-30T04:15:57.219Z,100.00
2022-09-30T04:22:02.089Z,100.00
2022-09-30T04:28:06.386Z,98.57
2022-09-30T04:34:10.306Z,97.59
2022-09-30T04:40:14.396Z,98.74
2022-09-30T04:46:23.335Z,99.27
2022-09-30T04:52:25.217Z,99.95
2022-09-30T04:58:36.675Z,100.00
2022-09-30T05:04:44.982Z,99.72
2022-09-30T05:11:00.915Z,98.61
2022-09-30T05:17:02.807Z,97.67
2022-09-30T05:23:11.201Z,97.99
2022-09-30T05:29:13.600Z,98.24
2022-09-30T05:35:15.660Z,98.12
2022-09-30T05:41:24.619Z,98.21
2022-09-30T05:47:26.503Z,98.68
2022-09-30T05:53:32.205Z,98.36
2022-09-30T05:59:34.263Z,99.29
2022-09-30T06:05:44.141Z,99.25
2022-09-30T06:11:46.073Z,99.29
2022-09-30T06:23:58.071Z,98.95
2022-09-30T06:30:00.479Z,96.34
2022-09-30T06:36:04.686Z,96.07
2022-09-30T06:42:07.901Z,95.36
2022-09-30T06:48:10.208Z,95.47
2022-09-30T06:54:12.315Z,94.94
2022-09-30T07:00:16.443Z,94.65
2022-09-30T07:06:18.302Z,96.42
2022-09-30T07:12:20.192Z,97.10
2022-09-30T07:18:24.033Z,97.41
2022-09-30T07:24:25.869Z,97.01
2022-09-30T07:30:27.749Z,98.80
2022-09-30T07:36:34.005Z,92.31
2022-09-30T07:42:40.121Z,92.35
2022-09-30T07:48:50.215Z,94.34
2022-09-30T07:54:52.122Z,85.02
2022-09-30T08:00:54.099Z,80.49
2022-09-30T08:07:00.251Z,72.36
2022-09-30T08:13:05.636Z,59.07
2022-09-30T08:19:13.272Z,48.02
2022-09-30T08:25:15.204Z,44.42
2022-09-30T08:31:22.643Z,39.16
2022-09-30T08:37:24.601Z,37.70
2022-09-30T08:43:50.998Z,35.30
2022-09-30T08:50:45.587Z,36.72
2022-09-30T08:56:48.079Z,38.18
2022-09-30T09:03:03.102Z,35.96
2022-09-30T09:09:40.202Z,33.74
2022-09-30T09:16:01.715Z,31.35
2022-09-30T09:22:04.006Z,31.96
2022-09-30T09:28:37.060Z,30.55
2022-09-30T09:34:41.267Z,28.04
2022-09-30T09:41:23.870Z,28.08
2022-09-30T09:47:25.776Z,27.92
2022-09-30T09:53:41.688Z,27.62
2022-09-30T10:00:45.779Z,29.16
2022-09-30T10:06:59.981Z,28.94
2022-09-30T10:13:01.981Z,31.21
2022-09-30T10:19:26.797Z,32.59
2022-09-30T10:25:29.289Z,32.07
2022-09-30T10:31:42.496Z,32.35
2022-09-30T10:37:53.033Z,32.48
2022-09-30T10:44:00.198Z,34.34
2022-09-30T10:50:20.631Z,37.94
2022-09-30T10:56:37.912Z,38.54
2022-09-30T11:02:55.123Z,36.08
2022-09-30T11:09:18.205Z,35.78
2022-09-30T11:15:30.401Z,35.46
2022-09-30T11:21:57.092Z,36.62
2022-09-30T11:28:37.168Z,34.40
2022-09-30T11:35:04.550Z,32.57
2022-09-30T11:41:36.569Z,33.71
2022-09-30T11:47:54.340Z,34.73
2022-09-30T11:54:32.192Z,34.59
2022-09-30T12:00:43.169Z,34.93
2022-09-30T12:07:12.343Z,32.71
2022-09-30T12:13:26.710Z,33.85
2022-09-30T12:19:41.620Z,34.66
2022-09-30T12:26:00.981Z,31.49
2022-09-30T12:32:54.337Z,28.02
2022-09-30T12:39:59.950Z,26.09
2022-09-30T12:53:25.944Z,24.84
2022-09-30T12:59:32.574Z,24.98
2022-09-30T13:05:39.277Z,27.49
2022-09-30T13:12:03.880Z,28.08
2022-09-30T13:18:20.995Z,25.99
2022-09-30T13:24:58.089Z,24.58
2022-09-30T13:31:21.653Z,25.51
2022-09-30T13:37:38.712Z,23.87
2022-09-30T13:44:16.850Z,25.48
2022-09-30T13:50:34.987Z,26.04
2022-09-30T13:56:40.799Z,26.29
2022-09-30T14:02:54.652Z,27.26
2022-09-30T14:09:33.455Z,26.28
2022-09-30T14:16:16.012Z,26.94
2022-09-30T14:22:19.272Z,26.83
2022-09-30T14:28:42.609Z,31.11
2022-09-30T14:34:49.541Z,30.66
2022-09-30T14:40:55.353Z,29.64
2022-09-30T14:47:01.370Z,29.87
2022-09-30T14:53:03.690Z,28.20
2022-09-30T15:05:44.283Z,29.88
2022-09-30T15:11:48.189Z,30.79
2022-09-30T15:17:53.913Z,32.54
2022-09-30T15:24:19.255Z,30.29
2022-09-30T15:30:38.338Z,29.96
2022-09-30T15:36:42.052Z,28.79
2022-09-30T15:43:03.540Z,32.16
2022-09-30T15:49:38.372Z,30.57
2022-09-30T15:55:48.208Z,32.82
2022-09-30T16:01:52.394Z,39.63
2022-09-30T16:07:54.348Z,44.71
2022-09-30T16:13:58.190Z,43.65
2022-09-30T16:20:14.662Z,41.97
2022-09-30T16:26:16.443Z,43.20
2022-09-30T16:32:18.861Z,46.97
2022-09-30T16:38:20.788Z,53.29
2022-09-30T16:44:24.534Z,58.42
2022-09-30T16:50:49.687Z,61.19
2022-09-30T16:57:00.934Z,63.52
2022-09-30T17:03:03.083Z,65.81
2022-09-30T17:09:05.655Z,67.27
2022-09-30T17:15:08.204Z,68.53
2022-09-30T17:21:10.291Z,69.43
2022-09-30T17:27:12.164Z,70.22
2022-09-30T17:33:14.904Z,70.67
2022-09-30T17:39:16.949Z,71.73
2022-09-30T17:45:18.842Z,72.16
2022-09-30T17:51:20.783Z,72.77
2022-09-30T17:57:22.768Z,73.48
2022-09-30T18:03:25.576Z,73.89
2022-09-30T18:09:27.516Z,74.35
2022-09-30T18:15:29.710Z,75.69
2022-09-30T18:21:34.811Z,76.13
2022-09-30T18:27:37.197Z,77.67
2022-09-30T18:33:39.496Z,77.71
2022-09-30T18:39:41.498Z,78.38
2022-09-30T18:45:43.826Z,78.96
2022-09-30T18:51:45.903Z,79.22
2022-09-30T18:57:49.096Z,80.03
2022-09-30T19:03:52.575Z,79.56
2022-09-30T19:09:54.505Z,79.51
2022-09-30T19:16:03.055Z,79.55
2022-09-30T19:22:05.161Z,80.35
2022-09-30T19:28:07.420Z,80.45
2022-09-30T19:34:12.716Z,79.16
2022-09-30T19:40:21.761Z,79.64
2022-09-30T19:46:25.034Z,79.91
2022-09-30T19:52:27.981Z,80.00
2022-09-30T19:58:37.355Z,81.00
2022-09-30T20:04:41.050Z,80.86
2022-09-30T20:10:43.007Z,82.28
2022-09-30T20:16:48.309Z,81.94
2022-09-30T20:22:50.266Z,82.96
2022-09-30T20:28:57.867Z,83.42
2022-09-30T20:34:59.783Z,83.12
2022-09-30T20:41:03.466Z,83.55
2022-09-30T20:47:05.374Z,84.00
2022-09-30T20:53:13.789Z,85.12
2022-09-30T20:59:15.855Z,84.99
2022-09-30T21:05:18.236Z,84.85
2022-09-30T21:11:23.361Z,84.41
2022-09-30T21:17:25.308Z,84.40
2022-09-30T21:23:29.462Z,85.98
2022-09-30T21:29:32.729Z,84.78
2022-09-30T21:35:34.634Z,85.16
2022-09-30T21:41:36.841Z,84.43
2022-09-30T21:54:03.017Z,83.98
2022-09-30T22:00:05.398Z,84.16
2022-09-30T22:06:11.155Z,83.83
2022-09-30T22:12:13.488Z,84.11
2022-09-30T22:18:19.581Z,84.01
2022-09-30T22:24:22.795Z,83.98
2022-09-30T22:30:27.788Z,83.35
2022-09-30T22:36:48.490Z,83.27
2022-09-30T22:42:53.032Z,83.36
2022-09-30T22:48:57.437Z,84.31
2022-09-30T22:55:00.733Z,83.41
2022-09-30T23:01:03.086Z,82.86
2022-09-30T23:07:07.600Z,82.68
2022-09-30T23:13:14.811Z,82.69
2022-09-30T23:19:17.246Z,83.00
2022-09-30T23:25:19.167Z,84.12
2022-09-30T23:31:29.772Z,85.27
2022-09-30T23:37:31.814Z,86.05
2022-09-30T23:43:45.672Z,86.16
2022-09-30T23:49:47.975Z,86.54
2022-09-30T23:56:19.833Z,87.01
